createdAt,value
2017-12-01T00:01:29.484Z,63
2017-12-01T00:03:34.920Z,61
2017-12-01T00:05:40.259Z,63
2017-12-01T00:07:45.727Z,63
2017-12-01T00:09:51.339Z,63
2017-12-01T00:11:56.738Z,63
2017-12-01T00:14:02.604Z,62
2017-12-01T00:16:07.962Z,62
2017-12-01T00:18:13.321Z,63
2017-12-01T00:20:18.568Z,63
2017-12-01T00:22:23.961Z,65
2017-12-01T00:24:29.479Z,65
2017-12-01T00:26:34.935Z,65
2017-12-01T00:28:40.031Z,66
2017-12-01T00:30:45.540Z,66
2017-12-01T00:32:50.836Z,66
2017-12-01T00:34:56.877Z,64
2017-12-01T00:37:02.166Z,66
2017-12-01T00:39:07.649Z,66
2017-12-01T00:41:14.848Z,64
2017-12-01T00:43:20.718Z,67
2017-12-01T00:45:26.083Z,68
2017-12-01T00:47:31.221Z,68
2017-12-01T00:49:36.545Z,67
2017-12-01T00:51:42.196Z,66
2017-12-01T00:53:47.600Z,68
2017-12-01T00:55:53.039Z,68
2017-12-01T00:57:58.241Z,67
2017-12-01T01:00:03.787Z,69
2017-12-01T01:02:09.181Z,69
2017-12-01T01:04:14.601Z,68
2017-12-01T01:06:19.861Z,67
2017-12-01T01:08:25.404Z,70
2017-12-01T01:10:31.484Z,68
2017-12-01T01:12:36.978Z,69
2017-12-01T01:14:42.301Z,70
2017-12-01T01:16:47.663Z,70
2017-12-01T01:18:53.104Z,70
2017-12-01T01:20:58.342Z,70
2017-12-01T01:23:04.038Z,70
2017-12-01T01:25:09.398Z,70
2017-12-01T01:27:14.889Z,72
2017-12-01T01:29:20.342Z,71
2017-12-01T01:31:26.323Z,71
2017-12-01T01:33:32.140Z,72
2017-12-01T01:35:37.598Z,72
2017-12-01T01:37:42.943Z,72
2017-12-01T01:39:48.178Z,70
2017-12-01T01:41:53.486Z,72
2017-12-01T01:43:58.884Z,72
2017-12-01T01:46:04.140Z,72
2017-12-01T01:48:09.401Z,71
2017-12-01T01:50:14.767Z,74
2017-12-01T01:52:20.220Z,74
2017-12-01T01:54:25.501Z,73
2017-12-01T01:56:30.683Z,72
2017-12-01T01:58:36.157Z,73
2017-12-01T02:00:41.306Z,74
2017-12-01T02:02:47.121Z,74
2017-12-01T02:04:52.198Z,74
2017-12-01T02:06:57.597Z,74
2017-12-01T02:09:02.702Z,74
2017-12-01T02:11:08.284Z,75
2017-12-01T02:13:14.602Z,74
2017-12-01T02:15:20.285Z,75
2017-12-01T02:17:25.721Z,75
2017-12-01T02:19:30.887Z,76
2017-12-01T02:21:36.140Z,75
2017-12-01T02:23:41.219Z,72
2017-12-01T02:25:46.462Z,75
2017-12-01T02:27:51.901Z,75
2017-12-01T02:29:57.295Z,75
2017-12-01T02:32:02.627Z,77
2017-12-01T02:34:07.926Z,76
2017-12-01T02:36:13.382Z,75
2017-12-01T02:38:18.744Z,77
2017-12-01T02:40:23.978Z,76
2017-12-01T02:42:29.220Z,77
2017-12-01T02:44:34.512Z,77
2017-12-01T02:46:39.780Z,77
2017-12-01T02:48:45.140Z,77
2017-12-01T02:50:50.279Z,78
2017-12-01T02:52:55.760Z,78
2017-12-01T02:55:01.161Z,77
2017-12-01T02:57:06.424Z,77
2017-12-01T02:59:11.639Z,77
2017-12-01T03:01:16.864Z,79
2017-12-01T03:03:22.362Z,77
2017-12-01T03:05:27.500Z,77
2017-12-01T03:07:32.884Z,79
2017-12-01T03:09:38.223Z,79
2017-12-01T03:11:43.384Z,80
2017-12-01T03:13:48.520Z,80
2017-12-01T03:15:53.684Z,80
2017-12-01T03:17:58.945Z,81
2017-12-01T03:20:04.182Z,81
2017-12-01T03:22:09.529Z,79
2017-12-01T03:24:15.018Z,81
2017-12-01T03:26:20.222Z,81
2017-12-01T03:28:25.303Z,79
2017-12-01T03:30:30.562Z,80
2017-12-01T03:32:35.760Z,81
2017-12-01T03:34:41.107Z,81
2017-12-01T03:36:46.279Z,82
2017-12-01T03:38:51.480Z,83
2017-12-01T03:40:56.825Z,83
2017-12-01T03:43:02.220Z,83
2017-12-01T03:45:07.461Z,83
2017-12-01T03:47:12.958Z,83
2017-12-01T03:49:18.321Z,84
2017-12-01T03:51:23.563Z,84
2017-12-01T03:53:28.804Z,83
2017-12-01T03:55:34.540Z,84
2017-12-01T03:57:39.800Z,85
2017-12-01T03:59:45.065Z,83
2017-12-01T04:01:50.483Z,84
2017-12-01T04:03:55.990Z,85
2017-12-01T04:06:01.340Z,86
2017-12-01T04:08:06.582Z,85
2017-12-01T04:10:11.716Z,83
2017-12-01T04:12:15.722Z,86
2017-12-01T04:14:21.222Z,87
2017-12-01T04:16:26.908Z,87
2017-12-01T04:18:32.087Z,88
2017-12-01T04:20:37.400Z,88
2017-12-01T04:22:42.791Z,88
2017-12-01T04:24:47.983Z,86
2017-12-01T04:26:53.347Z,86
2017-12-01T04:28:58.825Z,88
2017-12-01T04:31:03.964Z,88
2017-12-01T04:33:09.250Z,88
2017-12-01T04:35:14.862Z,89
2017-12-01T04:37:20.702Z,90
2017-12-01T04:39:26.255Z,90
2017-12-01T04:41:32.057Z,90
2017-12-01T04:43:37.419Z,90
2017-12-01T04:45:42.881Z,90
2017-12-01T04:47:48.200Z,90
2017-12-01T04:49:54.084Z,90
2017-12-01T04:51:59.402Z,91
2017-12-01T04:54:05.578Z,91
2017-12-01T04:56:11.183Z,90
2017-12-01T04:58:16.899Z,90
2017-12-01T05:00:23.028Z,90
2017-12-01T05:02:28.656Z,90
2017-12-01T05:04:34.623Z,90
2017-12-01T05:06:40.384Z,92
2017-12-01T05:08:45.884Z,92
2017-12-01T05:10:52.604Z,92
2017-12-01T05:12:58.399Z,92
2017-12-01T05:15:03.999Z,92
2017-12-01T05:17:09.590Z,92
2017-12-01T05:19:14.824Z,92
2017-12-01T05:21:20.386Z,93
2017-12-01T05:23:25.842Z,94
2017-12-01T05:25:31.524Z,93
2017-12-01T05:27:36.823Z,94
2017-12-01T05:29:42.130Z,94
2017-12-01T05:31:47.564Z,94
2017-12-01T05:33:53.620Z,94
2017-12-01T05:35:58.820Z,92
2017-12-01T05:38:05.138Z,94
2017-12-01T05:40:11.221Z,94
2017-12-01T05:42:17.300Z,94
2017-12-01T05:44:22.606Z,94
2017-12-01T05:46:28.143Z,96
2017-12-01T05:48:35.560Z,96
2017-12-01T05:50:42.467Z,97
2017-12-01T05:52:51.685Z,97
2017-12-01T05:54:57.863Z,95
2017-12-01T05:57:06.303Z,97
2017-12-01T05:59:14.305Z,98
2017-12-01T06:01:20.846Z,97
2017-12-01T06:03:27.185Z,97
2017-12-01T06:05:34.559Z,98
2017-12-01T06:07:41.288Z,97
2017-12-01T06:09:48.240Z,99
2017-12-01T06:11:55.307Z,99
2017-12-01T06:14:02.427Z,98
2017-12-01T06:16:09.439Z,100
2017-12-01T06:18:16.685Z,100
2017-12-01T06:20:27.777Z,99
2017-12-01T06:22:39.365Z,100
2017-12-01T06:24:48.450Z,100
2017-12-01T06:26:55.437Z,100
2017-12-01T06:29:04.364Z,100
2017-12-01T06:31:14.778Z,100
2017-12-01T06:33:23.726Z,100
2017-12-01T06:35:36.472Z,100
2017-12-01T06:37:49.344Z,100
2017-12-01T06:40:07.165Z,100
2017-12-01T06:42:30.499Z,100
2017-12-01T06:44:42.160Z,100
2017-12-01T06:46:55.243Z,100
2017-12-01T06:49:07.161Z,100
2017-12-01T06:51:25.883Z,100
2017-12-01T06:53:41.702Z,100
2017-12-01T06:55:58.377Z,100
2017-12-01T06:58:29.183Z,100
2017-12-01T07:03:14.781Z,100
2017-12-01T07:05:46.567Z,100
2017-12-01T07:08:07.959Z,100
2017-12-01T07:10:37.562Z,100
2017-12-01T07:17:41.541Z,100
2017-12-01T07:20:00.375Z,100
2017-12-01T07:28:25.764Z,100
2017-12-01T07:35:42.863Z,100
2017-12-01T07:38:09.562Z,100
2017-12-01T07:45:02.921Z,100
2017-12-01T08:06:04.019Z,100
2017-12-01T08:21:10.202Z,100
2017-12-01T08:34:21.984Z,100
2017-12-01T08:57:37.938Z,100
2017-12-01T09:56:21.908Z,100
